createdAt,value
2022-08-25T00:00:55.843Z,13.35
2022-08-25T00:03:42.647Z,12.43
2022-08-25T00:06:29.727Z,13.38
2022-08-25T00:09:18.070Z,12.02
2022-08-25T00:12:05.219Z,12.63
2022-08-25T00:14:50.729Z,11.30
2022-08-25T00:17:36.135Z,11.45
2022-08-25T00:20:22.394Z,11.82
2022-08-25T00:23:07.813Z,11.50
2022-08-25T00:25:53.766Z,10.73
2022-08-25T00:28:39.686Z,11.10
2022-08-25T00:31:25.089Z,11.00
2022-08-25T00:34:33.935Z,11.43
2022-08-25T00:37:19.993Z,10.73
2022-08-25T00:40:06.715Z,10.82
2022-08-25T00:42:51.971Z,11.77
2022-08-25T00:45:37.521Z,11.38
2022-08-25T00:48:22.962Z,11.60
2022-08-25T00:51:11.601Z,12.40
2022-08-25T00:53:57.150Z,12.13
2022-08-25T00:56:43.769Z,12.07
2022-08-25T00:59:30.024Z,11.45
2022-08-25T01:02:15.466Z,11.75
2022-08-25T01:05:00.728Z,11.98
2022-08-25T01:07:46.675Z,11.10
2022-08-25T01:10:33.255Z,11.68
2022-08-25T01:13:33.702Z,11.70
2022-08-25T01:16:18.904Z,11.98
2022-08-25T01:19:07.272Z,11.07
2022-08-25T01:21:53.985Z,11.15
2022-08-25T01:24:59.406Z,12.10
2022-08-25T01:27:44.897Z,12.68
2022-08-25T01:30:30.348Z,11.05
2022-08-25T01:33:19.192Z,11.52
2022-08-25T01:36:05.428Z,11.50
2022-08-25T01:38:51.236Z,11.55
2022-08-25T01:42:06.979Z,12.57
2022-08-25T01:44:52.207Z,12.50
2022-08-25T01:47:37.882Z,11.18
2022-08-25T01:50:23.352Z,10.85
2022-08-25T01:53:19.658Z,11.23
2022-08-25T01:56:12.729Z,11.13
2022-08-25T01:58:57.805Z,11.90
2022-08-25T02:01:43.336Z,11.10
2022-08-25T02:04:32.250Z,11.02
2022-08-25T02:07:18.032Z,11.55
2022-08-25T02:10:05.632Z,10.57
2022-08-25T02:12:51.017Z,12.38
2022-08-25T02:15:44.463Z,10.95
2022-08-25T02:18:30.283Z,11.13
2022-08-25T02:21:15.750Z,11.63
2022-08-25T02:24:01.559Z,11.95
2022-08-25T02:26:46.903Z,12.27
2022-08-25T02:29:33.819Z,11.57
2022-08-25T02:32:19.350Z,12.60
2022-08-25T02:35:06.149Z,13.50
2022-08-25T02:37:53.515Z,13.27
2022-08-25T02:40:39.847Z,13.85
2022-08-25T02:43:26.701Z,12.38
2022-08-25T02:46:12.807Z,13.07
2022-08-25T02:48:57.920Z,13.55
2022-08-25T02:51:43.291Z,13.60
2022-08-25T02:54:28.727Z,13.15
2022-08-25T02:57:15.768Z,12.45
2022-08-25T03:00:00.890Z,12.93
2022-08-25T03:02:47.333Z,12.43
2022-08-25T03:05:33.664Z,12.52
2022-08-25T03:08:18.908Z,12.07
2022-08-25T03:11:05.397Z,12.95
2022-08-25T03:13:51.162Z,12.90
2022-08-25T03:16:36.627Z,12.70
2022-08-25T03:19:22.246Z,12.38
2022-08-25T03:22:07.442Z,12.77
2022-08-25T03:25:12.914Z,12.95
2022-08-25T03:27:58.179Z,12.77
2022-08-25T03:30:44.448Z,13.52
2022-08-25T03:33:30.504Z,13.77
2022-08-25T03:36:15.945Z,12.63
2022-08-25T03:39:01.229Z,12.48
2022-08-25T03:41:47.268Z,12.70
2022-08-25T03:44:33.525Z,12.48
2022-08-25T03:47:18.971Z,12.98
2022-08-25T03:50:06.289Z,12.68
2022-08-25T03:52:54.845Z,13.05
2022-08-25T03:55:40.976Z,12.52
2022-08-25T03:58:26.186Z,12.95
2022-08-25T04:01:11.918Z,13.00
2022-08-25T04:03:57.390Z,12.23
2022-08-25T04:06:44.173Z,13.20
2022-08-25T04:09:30.832Z,12.65
2022-08-25T04:12:17.553Z,12.73
2022-08-25T04:15:05.949Z,11.27
2022-08-25T04:17:51.980Z,12.20
2022-08-25T04:20:45.929Z,11.73
2022-08-25T04:23:32.381Z,11.85
2022-08-25T04:26:21.372Z,12.70
2022-08-25T04:29:09.877Z,11.15
2022-08-25T04:31:55.405Z,12.57
2022-08-25T04:34:41.824Z,13.82
2022-08-25T04:37:26.924Z,13.00
2022-08-25T04:40:12.565Z,13.40
2022-08-25T04:42:58.196Z,13.88
2022-08-25T04:45:43.551Z,13.00
2022-08-25T04:48:28.972Z,13.57
2022-08-25T04:51:17.295Z,13.23
2022-08-25T04:54:05.422Z,14.52
2022-08-25T04:56:54.323Z,15.20
2022-08-25T04:59:43.516Z,14.10
2022-08-25T05:02:29.008Z,13.38
2022-08-25T05:05:14.338Z,13.45
2022-08-25T05:07:59.948Z,14.70
2022-08-25T05:10:45.131Z,13.82
2022-08-25T05:13:30.932Z,13.68
2022-08-25T05:16:17.381Z,13.68
2022-08-25T05:19:02.689Z,14.80
2022-08-25T05:21:48.063Z,15.18
2022-08-25T05:24:33.308Z,15.30
2022-08-25T05:27:18.647Z,14.60
2022-08-25T05:30:04.499Z,15.15
2022-08-25T05:32:50.097Z,15.60
2022-08-25T05:35:36.172Z,15.27
2022-08-25T05:38:22.250Z,15.60
2022-08-25T05:41:15.376Z,15.45
2022-08-25T05:44:00.559Z,15.25
2022-08-25T05:46:47.187Z,16.23
2022-08-25T05:49:32.487Z,16.38
2022-08-25T05:52:20.167Z,15.27
2022-08-25T05:55:06.748Z,15.57
2022-08-25T05:57:51.740Z,17.33
2022-08-25T06:00:38.204Z,16.85
2022-08-25T06:03:23.599Z,15.82
2022-08-25T06:06:09.267Z,15.50
2022-08-25T06:08:54.673Z,16.88
2022-08-25T06:11:40.901Z,16.70
2022-08-25T06:14:27.377Z,16.50
2022-08-25T06:17:12.771Z,15.95
2022-08-25T06:19:58.084Z,15.80
2022-08-25T06:22:43.877Z,16.95
2022-08-25T06:25:32.611Z,17.10
2022-08-25T06:28:18.189Z,16.63
2022-08-25T06:31:04.014Z,18.10
2022-08-25T06:33:50.814Z,15.77
2022-08-25T06:36:36.112Z,17.15
2022-08-25T06:39:22.312Z,16.77
2022-08-25T06:42:07.463Z,16.33
2022-08-25T06:44:52.845Z,16.33
2022-08-25T06:47:38.234Z,16.40
2022-08-25T06:50:23.956Z,15.57
2022-08-25T06:53:09.407Z,16.63
2022-08-25T06:55:58.018Z,16.00
2022-08-25T06:58:43.250Z,16.33
2022-08-25T07:01:28.530Z,15.45
2022-08-25T07:04:17.340Z,14.98
2022-08-25T07:07:04.093Z,15.27
2022-08-25T07:09:49.245Z,15.63
2022-08-25T07:12:34.632Z,16.58
2022-08-25T07:15:21.012Z,16.13
2022-08-25T07:18:07.490Z,15.10
2022-08-25T07:20:53.872Z,16.35
2022-08-25T07:23:40.242Z,15.48
2022-08-25T07:26:43.678Z,15.85
2022-08-25T07:32:35.389Z,13.73
2022-08-25T07:35:23.979Z,14.13
2022-08-25T07:38:10.194Z,14.10
2022-08-25T07:41:02.613Z,13.48
2022-08-25T07:43:47.956Z,13.98
2022-08-25T07:46:35.228Z,13.35
2022-08-25T07:49:23.246Z,12.90
2022-08-25T07:52:09.257Z,12.13
2022-08-25T07:54:55.145Z,13.13
2022-08-25T07:57:41.105Z,13.13
2022-08-25T08:00:29.849Z,13.93
2022-08-25T08:03:35.316Z,13.70
2022-08-25T08:06:24.074Z,12.77
2022-08-25T08:09:09.461Z,12.18
2022-08-25T08:11:54.644Z,12.70
2022-08-25T08:14:45.091Z,12.23
2022-08-25T08:17:31.936Z,11.53
2022-08-25T08:20:17.739Z,12.10
2022-08-25T08:23:08.878Z,11.20
2022-08-25T08:25:54.275Z,12.55
2022-08-25T08:28:39.767Z,11.98
2022-08-25T08:31:28.338Z,12.27
2022-08-25T08:34:13.885Z,10.82
2022-08-25T08:37:00.277Z,10.68
2022-08-25T08:39:45.722Z,10.85
2022-08-25T08:42:46.986Z,11.50
2022-08-25T08:45:50.915Z,9.93
2022-08-25T08:48:40.980Z,8.20
2022-08-25T08:51:38.493Z,9.27
2022-08-25T08:54:28.770Z,9.45
2022-08-25T08:57:23.024Z,9.52
2022-08-25T09:00:09.352Z,8.75
2022-08-25T09:03:06.908Z,7.97
2022-08-25T09:05:56.287Z,8.45
2022-08-25T09:08:44.857Z,9.30
2022-08-25T09:12:09.041Z,8.35
2022-08-25T09:16:01.416Z,9.27
2022-08-25T09:18:58.109Z,8.20
2022-08-25T09:21:57.088Z,7.32
2022-08-25T09:24:52.315Z,6.90
2022-08-25T09:27:48.271Z,7.47
2022-08-25T09:30:49.009Z,6.72
2022-08-25T09:33:35.587Z,6.78
2022-08-25T09:36:21.160Z,6.07
2022-08-25T09:39:07.669Z,6.32
2022-08-25T09:42:00.261Z,7.20
2022-08-25T09:44:48.437Z,6.60
2022-08-25T09:47:44.297Z,6.18
2022-08-25T09:50:35.050Z,6.68
2022-08-25T09:53:21.710Z,5.75
2022-08-25T09:56:10.378Z,6.38
2022-08-25T09:59:21.284Z,6.88
2022-08-25T10:02:26.355Z,6.15
2022-08-25T10:05:21.001Z,6.90
2022-08-25T10:08:24.694Z,6.68
2022-08-25T10:11:28.971Z,6.78
2022-08-25T10:14:36.232Z,7.15
2022-08-25T10:17:31.679Z,7.25
2022-08-25T10:20:25.734Z,6.75
2022-08-25T10:23:15.045Z,6.57
2022-08-25T10:26:06.093Z,6.07
2022-08-25T10:29:25.897Z,6.85
2022-08-25T10:32:22.460Z,7.32
2022-08-25T10:35:20.301Z,6.68
2022-08-25T10:38:14.519Z,6.60
2022-08-25T10:41:58.888Z,6.90
2022-08-25T10:45:43.168Z,6.45
2022-08-25T10:48:50.123Z,5.90
2022-08-25T10:52:12.062Z,6.57
2022-08-25T10:55:11.869Z,6.47
2022-08-25T10:58:34.156Z,6.82
2022-08-25T11:01:36.663Z,6.15
2022-08-25T11:04:37.798Z,6.53
2022-08-25T11:07:34.456Z,6.93
2022-08-25T11:10:25.950Z,6.72
2022-08-25T11:13:31.633Z,6.28
2022-08-25T11:16:41.707Z,6.40
2022-08-25T11:19:38.843Z,6.32
2022-08-25T11:22:39.694Z,5.80
2022-08-25T11:25:38.250Z,6.00
2022-08-25T11:28:35.753Z,6.18
2022-08-25T11:31:23.092Z,7.10
2022-08-25T11:34:16.348Z,6.13
2022-08-25T11:37:22.942Z,5.82
2022-08-25T11:40:27.910Z,6.35
2022-08-25T11:43:52.513Z,6.72
2022-08-25T11:47:02.970Z,6.72
2022-08-25T11:50:04.560Z,6.85
2022-08-25T11:52:56.677Z,6.03
2022-08-25T11:55:53.921Z,6.13
2022-08-25T11:58:41.655Z,5.68
2022-08-25T12:01:43.113Z,5.82
2022-08-25T12:04:45.036Z,5.80
2022-08-25T12:08:13.495Z,5.97
2022-08-25T12:11:11.220Z,5.75
2022-08-25T12:14:40.886Z,6.13
2022-08-25T12:17:37.115Z,5.97
2022-08-25T12:20:53.580Z,6.32
2022-08-25T12:23:44.831Z,6.25
2022-08-25T12:29:34.631Z,5.88
2022-08-25T12:32:41.068Z,6.30
2022-08-25T12:35:31.007Z,7.00
2022-08-25T12:38:49.571Z,6.05
2022-08-25T12:41:55.415Z,6.30
2022-08-25T12:44:48.605Z,5.70
2022-08-25T12:47:35.375Z,6.50
2022-08-25T12:50:38.856Z,6.40
2022-08-25T12:53:35.305Z,6.15
2022-08-25T12:56:27.388Z,5.85
2022-08-25T12:59:21.894Z,6.35
2022-08-25T13:02:39.775Z,6.38
2022-08-25T13:05:47.941Z,6.97
2022-08-25T13:09:00.475Z,6.75
2022-08-25T13:12:02.494Z,5.95
2022-08-25T13:14:54.373Z,6.60
2022-08-25T13:17:39.434Z,7.22
2022-08-25T13:20:29.093Z,7.25
2022-08-25T13:23:19.504Z,7.53
2022-08-25T13:26:06.474Z,6.45
2022-08-25T13:29:00.503Z,5.88
2022-08-25T13:32:09.355Z,7.20
2022-08-25T13:35:19.668Z,6.72
2022-08-25T13:38:16.575Z,6.90
2022-08-25T13:41:09.223Z,6.88
2022-08-25T13:43:55.905Z,6.70
2022-08-25T13:46:47.401Z,6.45
2022-08-25T13:49:32.593Z,6.22
2022-08-25T13:52:29.286Z,6.65
2022-08-25T13:55:27.471Z,6.95
2022-08-25T13:58:17.220Z,6.15
2022-08-25T14:01:22.927Z,6.25
2022-08-25T14:04:40.035Z,7.95
2022-08-25T14:07:38.328Z,6.35
2022-08-25T14:10:45.216Z,6.28
2022-08-25T14:13:32.560Z,5.32
2022-08-25T14:16:25.500Z,6.43
2022-08-25T14:19:19.832Z,6.22
2022-08-25T14:22:05.916Z,6.15
2022-08-25T14:24:52.978Z,5.10
2022-08-25T14:28:03.595Z,6.00
2022-08-25T14:30:58.433Z,5.80
2022-08-25T14:33:53.855Z,5.45
2022-08-25T14:36:38.946Z,5.53
2022-08-25T14:39:24.393Z,6.00
2022-08-25T14:42:10.060Z,5.68
2022-08-25T14:44:56.269Z,5.70
2022-08-25T14:47:42.483Z,5.68
2022-08-25T14:50:27.561Z,5.38
2022-08-25T14:53:13.155Z,6.25
2022-08-25T14:55:59.073Z,5.20
2022-08-25T14:58:50.985Z,5.88
2022-08-25T15:01:39.806Z,6.13
2022-08-25T15:04:28.260Z,6.55
2022-08-25T15:07:32.225Z,6.07
2022-08-25T15:10:18.432Z,5.10
2022-08-25T15:13:07.264Z,5.25
2022-08-25T15:15:53.247Z,5.20
2022-08-25T15:18:38.713Z,6.68
2022-08-25T15:21:23.869Z,5.55
2022-08-25T15:24:10.928Z,5.65
2022-08-25T15:26:59.836Z,5.82
2022-08-25T15:29:46.715Z,5.75
2022-08-25T15:32:32.425Z,6.07
2022-08-25T15:35:17.496Z,5.93
2022-08-25T15:38:02.828Z,5.82
2022-08-25T15:40:50.343Z,6.25
2022-08-25T15:43:35.943Z,5.32
2022-08-25T15:46:23.885Z,5.47
2022-08-25T15:49:09.495Z,6.05
2022-08-25T15:51:56.487Z,5.93
2022-08-25T15:54:43.223Z,5.82
2022-08-25T15:57:30.761Z,5.57
2022-08-25T16:00:17.010Z,5.43
2022-08-25T16:03:03.172Z,5.70
2022-08-25T16:05:48.975Z,4.95
2022-08-25T16:08:35.280Z,5.40
2022-08-25T16:11:27.603Z,6.45
2022-08-25T16:16:59.801Z,5.85
2022-08-25T16:19:45.915Z,5.88
2022-08-25T16:22:31.236Z,5.93
2022-08-25T16:25:17.043Z,6.45
2022-08-25T16:28:03.029Z,5.70
2022-08-25T16:30:52.704Z,6.45
2022-08-25T16:33:39.670Z,6.35
2022-08-25T16:36:27.018Z,5.10
2022-08-25T16:39:12.722Z,6.18
2022-08-25T16:41:58.709Z,6.53
2022-08-25T16:44:44.776Z,6.40
2022-08-25T16:47:29.969Z,5.88
2022-08-25T16:50:16.110Z,6.10
2022-08-25T16:53:19.942Z,5.68
2022-08-25T16:56:11.545Z,6.57
2022-08-25T16:58:59.389Z,5.57
2022-08-25T17:01:44.989Z,5.70
2022-08-25T17:04:32.185Z,5.18
2022-08-25T17:07:23.736Z,6.72
2022-08-25T17:10:12.672Z,6.90
2022-08-25T17:12:58.531Z,5.93
2022-08-25T17:15:46.677Z,7.68
2022-08-25T17:18:32.953Z,6.50
2022-08-25T17:21:25.027Z,6.70
2022-08-25T17:24:11.175Z,6.13
2022-08-25T17:26:56.602Z,6.75
2022-08-25T17:29:43.397Z,6.00
2022-08-25T17:32:30.636Z,6.07
2022-08-25T17:35:15.850Z,6.40
2022-08-25T17:38:01.285Z,6.40
2022-08-25T17:40:48.033Z,6.07
2022-08-25T17:43:40.976Z,6.15
2022-08-25T17:46:26.769Z,6.75
2022-08-25T17:49:12.342Z,6.13
2022-08-25T17:51:58.112Z,7.15
2022-08-25T17:54:43.455Z,6.80
2022-08-25T17:57:28.867Z,6.40
2022-08-25T18:00:15.795Z,6.38
2022-08-25T18:03:03.988Z,6.80
2022-08-25T18:05:50.264Z,6.95
2022-08-25T18:08:36.065Z,6.45
2022-08-25T18:11:24.546Z,6.40
2022-08-25T18:14:11.344Z,5.90
2022-08-25T18:16:57.021Z,6.20
2022-08-25T18:19:42.560Z,7.15
2022-08-25T18:22:27.994Z,6.90
2022-08-25T18:25:15.342Z,6.35
2022-08-25T18:28:02.281Z,6.95
2022-08-25T18:30:48.151Z,7.97
2022-08-25T18:33:34.991Z,7.18
2022-08-25T18:36:21.099Z,7.13
2022-08-25T18:39:25.902Z,7.22
2022-08-25T18:42:11.100Z,8.02
2022-08-25T18:44:57.040Z,7.45
2022-08-25T18:47:42.571Z,7.10
2022-08-25T18:50:31.118Z,6.72
2022-08-25T18:53:17.637Z,7.25
2022-08-25T18:56:03.317Z,6.85
2022-08-25T18:58:48.799Z,7.55
2022-08-25T19:01:37.721Z,6.82
2022-08-25T19:04:28.520Z,6.47
2022-08-25T19:07:17.191Z,7.63
2022-08-25T19:10:02.485Z,7.10
2022-08-25T19:12:48.020Z,7.65
2022-08-25T19:15:37.529Z,8.00
2022-08-25T19:18:25.895Z,7.10
2022-08-25T19:21:14.169Z,7.70
2022-08-25T19:23:59.685Z,7.25
2022-08-25T19:26:45.678Z,7.40
2022-08-25T19:29:31.557Z,8.10
2022-08-25T19:32:18.262Z,7.05
2022-08-25T19:35:07.945Z,7.43
2022-08-25T19:37:53.973Z,7.32
2022-08-25T19:40:39.318Z,6.50
2022-08-25T19:43:24.521Z,6.40
2022-08-25T19:46:10.174Z,10.13
2022-08-25T19:48:55.602Z,8.95
2022-08-25T19:51:44.639Z,7.53
2022-08-25T19:54:33.302Z,7.70
2022-08-25T19:57:28.395Z,10.02
2022-08-25T20:00:32.524Z,7.43
2022-08-25T20:03:20.470Z,7.68
2022-08-25T20:06:06.727Z,8.50
2022-08-25T20:08:58.850Z,8.15
2022-08-25T20:11:46.007Z,7.60
2022-08-25T20:14:33.780Z,7.13
2022-08-25T20:17:24.342Z,7.10
2022-08-25T20:20:16.213Z,9.32
2022-08-25T20:23:20.138Z,8.05
2022-08-25T20:26:05.436Z,8.52
2022-08-25T20:28:50.946Z,7.97
2022-08-25T20:31:36.543Z,9.13
2022-08-25T20:34:21.965Z,7.70
2022-08-25T20:37:07.985Z,7.53
2022-08-25T20:39:53.700Z,6.97
2022-08-25T20:42:40.617Z,6.60
2022-08-25T20:45:25.950Z,6.32
2022-08-25T20:48:11.176Z,6.53
2022-08-25T20:50:57.684Z,6.30
2022-08-25T20:53:44.003Z,7.55
2022-08-25T20:56:32.333Z,8.38
2022-08-25T20:59:18.108Z,7.10
2022-08-25T21:02:05.120Z,6.15
2022-08-25T21:04:51.118Z,6.68
2022-08-25T21:07:36.475Z,7.47
2022-08-25T21:10:21.973Z,6.72
2022-08-25T21:13:07.458Z,6.65
2022-08-25T21:15:52.834Z,7.53
2022-08-25T21:18:38.181Z,8.07
2022-08-25T21:21:23.912Z,8.70
2022-08-25T21:24:11.733Z,6.65
2022-08-25T21:26:59.577Z,6.90
2022-08-25T21:29:55.078Z,6.88
2022-08-25T21:32:40.425Z,6.88
2022-08-25T21:35:40.672Z,6.68
2022-08-25T21:38:29.031Z,7.82
2022-08-25T21:41:19.505Z,7.60
2022-08-25T21:44:05.359Z,6.57
2022-08-25T21:46:54.149Z,7.18
2022-08-25T21:49:40.098Z,7.07
2022-08-25T21:52:25.591Z,8.18
2022-08-25T21:55:16.146Z,8.27
2022-08-25T21:58:01.915Z,7.45
2022-08-25T22:00:47.324Z,7.97
2022-08-25T22:03:33.553Z,7.72
2022-08-25T22:06:23.077Z,8.23
2022-08-25T22:09:10.785Z,7.20
2022-08-25T22:11:56.555Z,7.38
2022-08-25T22:14:42.043Z,7.00
2022-08-25T22:17:28.246Z,7.82
2022-08-25T22:20:15.656Z,7.40
2022-08-25T22:23:01.047Z,8.05
2022-08-25T22:25:46.475Z,7.47
2022-08-25T22:28:31.841Z,6.60
2022-08-25T22:31:20.656Z,7.60
2022-08-25T22:34:06.793Z,7.78
2022-08-25T22:36:52.299Z,8.60
2022-08-25T22:39:46.306Z,7.55
2022-08-25T22:42:31.889Z,7.55
2022-08-25T22:45:17.495Z,9.20
2022-08-25T22:48:04.931Z,10.02
2022-08-25T22:50:50.133Z,8.85
2022-08-25T22:53:37.189Z,8.80
2022-08-25T22:56:31.853Z,8.77
2022-08-25T22:59:17.029Z,8.13
2022-08-25T23:02:03.660Z,7.93
2022-08-25T23:04:49.028Z,8.02
2022-08-25T23:07:36.881Z,8.55
2022-08-25T23:10:25.475Z,8.18
2022-08-25T23:13:11.144Z,8.45
2022-08-25T23:16:05.740Z,8.45
2022-08-25T23:18:51.866Z,9.00
2022-08-25T23:21:56.813Z,7.88
2022-08-25T23:24:44.623Z,8.50
2022-08-25T23:27:30.017Z,7.68
2022-08-25T23:30:15.669Z,7.85
2022-08-25T23:33:01.365Z,8.05
2022-08-25T23:35:46.733Z,8.73
2022-08-25T23:38:32.503Z,7.93
2022-08-25T23:41:20.359Z,7.72
2022-08-25T23:44:05.981Z,8.98
2022-08-25T23:46:51.453Z,8.80
2022-08-25T23:49:37.902Z,8.80
2022-08-25T23:52:23.860Z,8.45
2022-08-25T23:55:09.985Z,7.78
2022-08-25T23:57:56.103Z,8.75
